This is the latest recevied weather packets stored in our database for station/object WW5JC. If no packets are shown the sender has not sent any weather packets the latest 10 day(s).
| Time | Temp. | Humidity | Pressure | Rain* | Wind** | Luminosity | Snow |
|---|---|---|---|---|---|---|---|
| 1777594758 | 16.67° C | 79% | 1015.8 hPa | 0 mm | - | 20 W/m² | - |
| 1777594454 | 16.67° C | 79% | 1016 hPa | 0 mm | - | 25 W/m² | - |
| 1777594149 | 16.67° C | 80% | 1016.2 hPa | 0 mm | - | 26 W/m² | - |
| 1777593846 | 16.67° C | 79% | 1016 hPa | 0 mm | - | 31 W/m² | - |
| 1777593542 | 16.67° C | 79% | 1016.2 hPa | 0 mm | - | 40 W/m² | - |
| 1777593236 | 16.67° C | 78% | 1016 hPa | 0 mm | - | 28 W/m² | - |
| 1777592936 | 16.67° C | 78% | 1016.2 hPa | 0 mm | - | 28 W/m² | - |
| 1777592631 | 16.67° C | 76% | 1016.1 hPa | 0 mm | - | 32 W/m² | - |
| 1777592328 | 16.67° C | 77% | 1016.1 hPa | 0 mm | - | 41 W/m² | - |
| 1777592023 | 16.67° C | 76% | 1016.2 hPa | 0 mm | - | 40 W/m² | - |
| 1777591721 | 16.67° C | 78% | 1016.4 hPa | 0 mm | - | 37 W/m² | - |
| 1777591416 | 16.67° C | 76% | 1016.1 hPa | 0 mm | - | 52 W/m² | - |
| 1777591112 | 16.67° C | 75% | 1016.2 hPa | 0 mm | - | 44 W/m² | - |
| 1777590807 | 16.67° C | 74% | 1016.3 hPa | 0 mm | - | 83 W/m² | - |
| 1777590504 | 16.67° C | 73% | 1016.2 hPa | 0 mm | - | 89 W/m² | - |
| 1777590200 | 17.22° C | 76% | 1016.4 hPa | 0 mm | - | 76 W/m² | - |
| 1777589898 | 17.22° C | 74% | 1016.3 hPa | 0 mm | - | 89 W/m² | - |
| 1777589593 | 16.67° C | 75% | 1016.4 hPa | 0 mm | - | 82 W/m² | - |
| 1777589291 | 17.22° C | 75% | 1016.2 hPa | 0 mm | - | 85 W/m² | - |
| 1777588988 | 17.22° C | 76% | 1016.3 hPa | 0 mm | - | 85 W/m² | - |
| 1777588684 | 17.22° C | 76% | 1016.3 hPa | 0 mm | - | 88 W/m² | - |
| 1777588379 | 17.22° C | 74% | 1016.2 hPa | 0 mm | - | 112 W/m² | - |
| 1777588076 | 17.22° C | 75% | 1016.3 hPa | 0 mm | - | 136 W/m² | - |
| 1777587772 | 17.22° C | 73% | 1016.4 hPa | 0 mm | - | 148 W/m² | - |
| 1777587470 | 17.22° C | 76% | 1016.7 hPa | 0 mm | - | 118 W/m² | - |
* Rain latest hour (hover to see other rain measurements)
** Current wind speed in m/s (hover to see current wind gust speed)